sensor_id;sensor_type;location;lat;lon;timestamp;P1;durP1;ratioP1;P2;durP2;ratioP2
1829;SDS011;914;48.118;11.600;2023-05-24T00:01:35;3.40;;;3.20;;
1829;SDS011;914;48.118;11.600;2023-05-24T00:04:02;4.67;;;3.30;;
1829;SDS011;914;48.118;11.600;2023-05-24T00:06:28;3.90;;;3.10;;
1829;SDS011;914;48.118;11.600;2023-05-24T00:08:54;3.93;;;3.13;;
1829;SDS011;914;48.118;11.600;2023-05-24T00:11:20;4.07;;;3.60;;
1829;SDS011;914;48.118;11.600;2023-05-24T00:13:46;6.70;;;4.53;;
1829;SDS011;914;48.118;11.600;2023-05-24T00:16:13;3.27;;;2.83;;
1829;SDS011;914;48.118;11.600;2023-05-24T00:18:39;3.83;;;3.53;;
1829;SDS011;914;48.118;11.600;2023-05-24T00:21:06;3.60;;;3.30;;
1829;SDS011;914;48.118;11.600;2023-05-24T00:23:33;3.87;;;3.57;;
1829;SDS011;914;48.118;11.600;2023-05-24T00:25:59;3.43;;;3.03;;
1829;SDS011;914;48.118;11.600;2023-05-24T00:28:26;3.10;;;2.87;;
1829;SDS011;914;48.118;11.600;2023-05-24T00:30:52;3.50;;;3.20;;
1829;SDS011;914;48.118;11.600;2023-05-24T00:33:20;3.60;;;3.30;;
1829;SDS011;914;48.118;11.600;2023-05-24T00:35:47;3.10;;;2.90;;
1829;SDS011;914;48.118;11.600;2023-05-24T00:38:13;3.63;;;3.33;;
1829;SDS011;914;48.118;11.600;2023-05-24T00:40:39;3.30;;;3.10;;
1829;SDS011;914;48.118;11.600;2023-05-24T00:43:05;4.03;;;3.27;;
1829;SDS011;914;48.118;11.600;2023-05-24T00:45:30;4.50;;;3.17;;
1829;SDS011;914;48.118;11.600;2023-05-24T00:47:59;3.47;;;3.27;;
1829;SDS011;914;48.118;11.600;2023-05-24T00:50:25;3.43;;;3.13;;
1829;SDS011;914;48.118;11.600;2023-05-24T00:52:50;3.33;;;3.03;;
1829;SDS011;914;48.118;11.600;2023-05-24T00:55:16;3.30;;;3.10;;
1829;SDS011;914;48.118;11.600;2023-05-24T00:57:42;4.37;;;3.97;;
1829;SDS011;914;48.118;11.600;2023-05-24T01:00:08;4.00;;;3.70;;
1829;SDS011;914;48.118;11.600;2023-05-24T01:02:35;3.60;;;3.30;;
1829;SDS011;914;48.118;11.600;2023-05-24T01:05:02;4.00;;;3.70;;
1829;SDS011;914;48.118;11.600;2023-05-24T01:07:44;4.20;;;3.87;;
1829;SDS011;914;48.118;11.600;2023-05-24T01:10:42;5.10;;;3.77;;
1829;SDS011;914;48.118;11.600;2023-05-24T01:13:20;3.93;;;3.63;;
1829;SDS011;914;48.118;11.600;2023-05-24T01:16:06;4.20;;;3.87;;
1829;SDS011;914;48.118;11.600;2023-05-24T01:18:40;3.90;;;3.60;;
1829;SDS011;914;48.118;11.600;2023-05-24T01:29:28;4.57;;;4.17;;
1829;SDS011;914;48.118;11.600;2023-05-24T01:31:55;4.87;;;4.33;;
1829;SDS011;914;48.118;11.600;2023-05-24T01:34:21;4.53;;;4.13;;
1829;SDS011;914;48.118;11.600;2023-05-24T01:36:49;6.40;;;4.37;;
1829;SDS011;914;48.118;11.600;2023-05-24T01:39:14;4.43;;;4.03;;
1829;SDS011;914;48.118;11.600;2023-05-24T01:41:46;4.80;;;4.40;;
1829;SDS011;914;48.118;11.600;2023-05-24T01:49:49;4.40;;;4.00;;
1829;SDS011;914;48.118;11.600;2023-05-24T01:52:27;5.57;;;5.07;;
1829;SDS011;914;48.118;11.600;2023-05-24T01:54:57;4.47;;;4.00;;
1829;SDS011;914;48.118;11.600;2023-05-24T01:57:24;4.80;;;4.30;;
1829;SDS011;914;48.118;11.600;2023-05-24T01:59:52;6.20;;;4.60;;
1829;SDS011;914;48.118;11.600;2023-05-24T02:02:19;5.53;;;5.13;;
1829;SDS011;914;48.118;11.600;2023-05-24T02:04:45;5.50;;;5.00;;
1829;SDS011;914;48.118;11.600;2023-05-24T02:07:11;5.23;;;4.83;;
1829;SDS011;914;48.118;11.600;2023-05-24T02:09:37;5.53;;;4.87;;
1829;SDS011;914;48.118;11.600;2023-05-24T02:12:03;5.33;;;4.87;;
1829;SDS011;914;48.118;11.600;2023-05-24T02:14:29;6.57;;;5.47;;
1829;SDS011;914;48.118;11.600;2023-05-24T02:16:55;5.20;;;4.80;;
1829;SDS011;914;48.118;11.600;2023-05-24T02:19:23;5.57;;;5.07;;
1829;SDS011;914;48.118;11.600;2023-05-24T02:21:49;5.67;;;5.17;;
1829;SDS011;914;48.118;11.600;2023-05-24T02:24:15;5.13;;;4.73;;
1829;SDS011;914;48.118;11.600;2023-05-24T02:26:42;6.23;;;5.63;;
1829;SDS011;914;48.118;11.600;2023-05-24T02:29:08;6.83;;;6.00;;
1829;SDS011;914;48.118;11.600;2023-05-24T02:31:34;6.67;;;6.07;;
1829;SDS011;914;48.118;11.600;2023-05-24T02:34:00;7.10;;;6.40;;
1829;SDS011;914;48.118;11.600;2023-05-24T02:36:25;6.17;;;5.57;;
1829;SDS011;914;48.118;11.600;2023-05-24T02:38:51;6.20;;;5.53;;
1829;SDS011;914;48.118;11.600;2023-05-24T02:41:17;5.80;;;5.30;;
1829;SDS011;914;48.118;11.600;2023-05-24T02:43:44;6.63;;;5.37;;
1829;SDS011;914;48.118;11.600;2023-05-24T02:46:10;5.53;;;5.00;;
1829;SDS011;914;48.118;11.600;2023-05-24T02:48:38;6.07;;;5.47;;
1829;SDS011;914;48.118;11.600;2023-05-24T02:51:04;6.50;;;5.90;;
1829;SDS011;914;48.118;11.600;2023-05-24T02:53:31;7.13;;;6.43;;
1829;SDS011;914;48.118;11.600;2023-05-24T02:55:57;6.17;;;5.60;;
1829;SDS011;914;48.118;11.600;2023-05-24T02:58:26;6.57;;;5.97;;
1829;SDS011;914;48.118;11.600;2023-05-24T03:00:54;7.00;;;5.43;;
1829;SDS011;914;48.118;11.600;2023-05-24T03:03:20;5.50;;;5.00;;
1829;SDS011;914;48.118;11.600;2023-05-24T03:05:45;6.10;;;5.60;;
1829;SDS011;914;48.118;11.600;2023-05-24T03:08:11;6.03;;;5.53;;
1829;SDS011;914;48.118;11.600;2023-05-24T03:10:37;5.50;;;5.00;;
1829;SDS011;914;48.118;11.600;2023-05-24T03:13:02;5.97;;;5.47;;
1829;SDS011;914;48.118;11.600;2023-05-24T03:15:28;6.10;;;5.60;;
1829;SDS011;914;48.118;11.600;2023-05-24T03:17:53;6.20;;;5.70;;
1829;SDS011;914;48.118;11.600;2023-05-24T03:20:19;5.57;;;5.07;;
1829;SDS011;914;48.118;11.600;2023-05-24T03:22:45;5.07;;;4.67;;
1829;SDS011;914;48.118;11.600;2023-05-24T03:25:11;6.33;;;5.47;;
1829;SDS011;914;48.118;11.600;2023-05-24T03:27:36;5.63;;;5.20;;
1829;SDS011;914;48.118;11.600;2023-05-24T03:30:02;5.77;;;5.27;;
1829;SDS011;914;48.118;11.600;2023-05-24T03:32:30;5.87;;;5.37;;
1829;SDS011;914;48.118;11.600;2023-05-24T03:34:56;6.07;;;5.17;;
1829;SDS011;914;48.118;11.600;2023-05-24T03:37:24;6.03;;;5.53;;
1829;SDS011;914;48.118;11.600;2023-05-24T03:39:50;5.80;;;5.30;;
1829;SDS011;914;48.118;11.600;2023-05-24T03:42:15;6.00;;;5.50;;
1829;SDS011;914;48.118;11.600;2023-05-24T03:44:41;6.17;;;5.20;;
1829;SDS011;914;48.118;11.600;2023-05-24T03:47:07;6.30;;;5.80;;
1829;SDS011;914;48.118;11.600;2023-05-24T03:49:33;6.60;;;5.90;;
1829;SDS011;914;48.118;11.600;2023-05-24T03:51:59;7.00;;;6.30;;
1829;SDS011;914;48.118;11.600;2023-05-24T03:54:24;6.20;;;5.67;;
1829;SDS011;914;48.118;11.600;2023-05-24T03:56:50;5.67;;;5.17;;
1829;SDS011;914;48.118;11.600;2023-05-24T03:59:17;6.30;;;5.67;;
1829;SDS011;914;48.118;11.600;2023-05-24T04:01:43;6.80;;;6.20;;
1829;SDS011;914;48.118;11.600;2023-05-24T04:04:08;6.30;;;5.23;;
1829;SDS011;914;48.118;11.600;2023-05-24T04:06:34;5.40;;;5.00;;
1829;SDS011;914;48.118;11.600;2023-05-24T04:09:00;6.73;;;5.80;;
1829;SDS011;914;48.118;11.600;2023-05-24T04:11:29;6.20;;;5.60;;
1829;SDS011;914;48.118;11.600;2023-05-24T04:13:54;6.93;;;5.90;;
1829;SDS011;914;48.118;11.600;2023-05-24T04:16:21;6.33;;;5.73;;
1829;SDS011;914;48.118;11.600;2023-05-24T04:18:51;5.80;;;5.30;;
1829;SDS011;914;48.118;11.600;2023-05-24T04:21:18;7.37;;;5.30;;
1829;SDS011;914;48.118;11.600;2023-05-24T04:23:43;5.97;;;5.37;;
1829;SDS011;914;48.118;11.600;2023-05-24T04:26:09;6.17;;;5.23;;
1829;SDS011;914;48.118;11.600;2023-05-24T04:28:35;6.30;;;5.70;;
1829;SDS011;914;48.118;11.600;2023-05-24T04:31:05;6.73;;;5.27;;
1829;SDS011;914;48.118;11.600;2023-05-24T04:33:31;5.60;;;5.10;;
1829;SDS011;914;48.118;11.600;2023-05-24T04:35:58;5.80;;;5.30;;
1829;SDS011;914;48.118;11.600;2023-05-24T04:38:27;7.37;;;5.33;;
1829;SDS011;914;48.118;11.600;2023-05-24T04:40:54;7.47;;;5.83;;
1829;SDS011;914;48.118;11.600;2023-05-24T04:43:23;6.20;;;5.70;;
1829;SDS011;914;48.118;11.600;2023-05-24T04:45:50;7.20;;;6.17;;
1829;SDS011;914;48.118;11.600;2023-05-24T04:48:18;6.57;;;5.97;;
1829;SDS011;914;48.118;11.600;2023-05-24T04:50:45;7.00;;;5.50;;
1829;SDS011;914;48.118;11.600;2023-05-24T04:53:12;10.53;;;6.20;;
1829;SDS011;914;48.118;11.600;2023-05-24T04:55:38;6.40;;;5.80;;
1829;SDS011;914;48.118;11.600;2023-05-24T04:58:05;6.53;;;6.03;;
1829;SDS011;914;48.118;11.600;2023-05-24T05:00:31;6.43;;;5.83;;
1829;SDS011;914;48.118;11.600;2023-05-24T05:02:57;6.73;;;6.13;;
1829;SDS011;914;48.118;11.600;2023-05-24T05:05:22;6.07;;;5.47;;
1829;SDS011;914;48.118;11.600;2023-05-24T05:07:48;5.80;;;5.30;;
1829;SDS011;914;48.118;11.600;2023-05-24T05:10:14;6.10;;;5.50;;
1829;SDS011;914;48.118;11.600;2023-05-24T05:12:39;7.20;;;5.93;;
1829;SDS011;914;48.118;11.600;2023-05-24T05:15:05;5.80;;;5.27;;
1829;SDS011;914;48.118;11.600;2023-05-24T05:17:31;5.80;;;5.30;;
1829;SDS011;914;48.118;11.600;2023-05-24T05:19:57;7.47;;;5.40;;
1829;SDS011;914;48.118;11.600;2023-05-24T05:22:23;5.60;;;5.10;;
1829;SDS011;914;48.118;11.600;2023-05-24T05:24:48;6.07;;;5.50;;
1829;SDS011;914;48.118;11.600;2023-05-24T05:27:14;5.97;;;5.40;;
1829;SDS011;914;48.118;11.600;2023-05-24T05:29:40;6.33;;;5.63;;
1829;SDS011;914;48.118;11.600;2023-05-24T05:32:05;7.00;;;6.17;;
1829;SDS011;914;48.118;11.600;2023-05-24T05:34:31;6.57;;;5.97;;
1829;SDS011;914;48.118;11.600;2023-05-24T05:36:57;6.37;;;5.83;;
1829;SDS011;914;48.118;11.600;2023-05-24T05:39:22;7.07;;;6.10;;
1829;SDS011;914;48.118;11.600;2023-05-24T05:41:48;6.03;;;5.47;;
1829;SDS011;914;48.118;11.600;2023-05-24T05:44:13;6.33;;;5.73;;
1829;SDS011;914;48.118;11.600;2023-05-24T05:46:39;7.10;;;5.20;;
1829;SDS011;914;48.118;11.600;2023-05-24T05:49:07;5.63;;;5.13;;
1829;SDS011;914;48.118;11.600;2023-05-24T05:51:34;7.47;;;5.23;;
1829;SDS011;914;48.118;11.600;2023-05-24T05:54:00;7.90;;;5.37;;
1829;SDS011;914;48.118;11.600;2023-05-24T05:56:26;6.77;;;5.00;;
1829;SDS011;914;48.118;11.600;2023-05-24T05:58:52;11.30;;;6.40;;
1829;SDS011;914;48.118;11.600;2023-05-24T06:01:18;9.53;;;6.77;;
1829;SDS011;914;48.118;11.600;2023-05-24T06:03:43;8.57;;;6.37;;
1829;SDS011;914;48.118;11.600;2023-05-24T06:06:09;7.67;;;6.20;;
1829;SDS011;914;48.118;11.600;2023-05-24T06:08:35;8.20;;;6.73;;
1829;SDS011;914;48.118;11.600;2023-05-24T06:11:01;7.00;;;6.27;;
1829;SDS011;914;48.118;11.600;2023-05-24T06:13:27;6.93;;;6.33;;
1829;SDS011;914;48.118;11.600;2023-05-24T06:15:55;6.63;;;5.87;;
1829;SDS011;914;48.118;11.600;2023-05-24T06:18:22;6.80;;;6.20;;
1829;SDS011;914;48.118;11.600;2023-05-24T06:20:49;7.30;;;6.60;;
1829;SDS011;914;48.118;11.600;2023-05-24T06:23:15;11.20;;;8.13;;
1829;SDS011;914;48.118;11.600;2023-05-24T06:25:41;8.17;;;7.20;;
1829;SDS011;914;48.118;11.600;2023-05-24T06:28:08;7.87;;;7.10;;
1829;SDS011;914;48.118;11.600;2023-05-24T06:30:34;8.47;;;7.70;;
1829;SDS011;914;48.118;11.600;2023-05-24T06:32:59;9.93;;;7.93;;
1829;SDS011;914;48.118;11.600;2023-05-24T06:35:25;8.80;;;7.80;;
1829;SDS011;914;48.118;11.600;2023-05-24T06:37:51;8.50;;;7.70;;
1829;SDS011;914;48.118;11.600;2023-05-24T06:40:16;9.77;;;7.20;;
1829;SDS011;914;48.118;11.600;2023-05-24T06:42:42;8.13;;;7.37;;
1829;SDS011;914;48.118;11.600;2023-05-24T06:45:08;8.13;;;7.30;;
1829;SDS011;914;48.118;11.600;2023-05-24T06:47:34;9.20;;;7.30;;
1829;SDS011;914;48.118;11.600;2023-05-24T06:50:00;7.43;;;6.77;;
1829;SDS011;914;48.118;11.600;2023-05-24T06:52:28;8.60;;;7.80;;
1829;SDS011;914;48.118;11.600;2023-05-24T06:54:54;8.10;;;6.40;;
1829;SDS011;914;48.118;11.600;2023-05-24T06:57:20;7.87;;;7.10;;
1829;SDS011;914;48.118;11.600;2023-05-24T06:59:45;8.10;;;7.30;;
1829;SDS011;914;48.118;11.600;2023-05-24T07:02:11;10.33;;;7.57;;
1829;SDS011;914;48.118;11.600;2023-05-24T07:04:37;9.10;;;6.67;;
1829;SDS011;914;48.118;11.600;2023-05-24T07:07:05;8.90;;;7.03;;
1829;SDS011;914;48.118;11.600;2023-05-24T07:09:32;8.10;;;6.97;;
1829;SDS011;914;48.118;11.600;2023-05-24T07:11:58;8.37;;;7.43;;
1829;SDS011;914;48.118;11.600;2023-05-24T07:14:24;14.37;;;7.87;;
1829;SDS011;914;48.118;11.600;2023-05-24T07:16:51;8.93;;;7.23;;
1829;SDS011;914;48.118;11.600;2023-05-24T07:19:19;10.93;;;7.23;;
1829;SDS011;914;48.118;11.600;2023-05-24T07:21:46;7.60;;;6.90;;
1829;SDS011;914;48.118;11.600;2023-05-24T07:24:12;6.90;;;6.30;;
1829;SDS011;914;48.118;11.600;2023-05-24T07:26:38;9.57;;;6.47;;
1829;SDS011;914;48.118;11.600;2023-05-24T07:29:04;9.53;;;6.23;;
1829;SDS011;914;48.118;11.600;2023-05-24T07:31:29;6.47;;;5.87;;
1829;SDS011;914;48.118;11.600;2023-05-24T07:33:56;7.10;;;5.33;;
1829;SDS011;914;48.118;11.600;2023-05-24T07:36:22;8.13;;;5.50;;
1829;SDS011;914;48.118;11.600;2023-05-24T07:38:50;6.63;;;4.87;;
1829;SDS011;914;48.118;11.600;2023-05-24T07:41:15;6.63;;;5.43;;
1829;SDS011;914;48.118;11.600;2023-05-24T07:43:41;6.23;;;4.90;;
1829;SDS011;914;48.118;11.600;2023-05-24T07:46:07;8.17;;;5.47;;
1829;SDS011;914;48.118;11.600;2023-05-24T07:48:34;6.00;;;5.20;;
1829;SDS011;914;48.118;11.600;2023-05-24T07:50:59;5.87;;;5.33;;
1829;SDS011;914;48.118;11.600;2023-05-24T07:53:25;5.80;;;5.23;;
1829;SDS011;914;48.118;11.600;2023-05-24T07:55:51;5.47;;;4.97;;
1829;SDS011;914;48.118;11.600;2023-05-24T07:58:17;7.17;;;5.27;;
1829;SDS011;914;48.118;11.600;2023-05-24T08:00:42;5.40;;;4.60;;
1829;SDS011;914;48.118;11.600;2023-05-24T08:03:08;5.57;;;4.57;;
1829;SDS011;914;48.118;11.600;2023-05-24T08:05:37;8.20;;;4.73;;
1829;SDS011;914;48.118;11.600;2023-05-24T08:08:03;8.87;;;4.77;;
1829;SDS011;914;48.118;11.600;2023-05-24T08:10:28;8.40;;;5.10;;
1829;SDS011;914;48.118;11.600;2023-05-24T08:12:54;5.50;;;4.93;;
1829;SDS011;914;48.118;11.600;2023-05-24T08:15:20;6.43;;;5.13;;
1829;SDS011;914;48.118;11.600;2023-05-24T08:17:47;5.73;;;4.87;;
1829;SDS011;914;48.118;11.600;2023-05-24T08:20:12;7.73;;;4.87;;
1829;SDS011;914;48.118;11.600;2023-05-24T08:22:39;18.63;;;5.40;;
1829;SDS011;914;48.118;11.600;2023-05-24T08:25:05;5.37;;;4.70;;
1829;SDS011;914;48.118;11.600;2023-05-24T08:27:31;5.17;;;4.63;;
1829;SDS011;914;48.118;11.600;2023-05-24T08:29:57;8.83;;;4.73;;
1829;SDS011;914;48.118;11.600;2023-05-24T08:32:23;5.33;;;4.93;;
1829;SDS011;914;48.118;11.600;2023-05-24T08:34:48;6.53;;;5.23;;
1829;SDS011;914;48.118;11.600;2023-05-24T08:37:14;5.67;;;5.10;;
1829;SDS011;914;48.118;11.600;2023-05-24T08:39:43;7.20;;;5.70;;
1829;SDS011;914;48.118;11.600;2023-05-24T08:42:09;6.00;;;5.43;;
1829;SDS011;914;48.118;11.600;2023-05-24T08:44:50;6.13;;;5.50;;
1829;SDS011;914;48.118;11.600;2023-05-24T08:47:19;5.90;;;5.30;;
1829;SDS011;914;48.118;11.600;2023-05-24T08:49:46;7.50;;;5.70;;
1829;SDS011;914;48.118;11.600;2023-05-24T08:52:12;6.73;;;5.47;;
1829;SDS011;914;48.118;11.600;2023-05-24T08:54:38;6.50;;;5.90;;
1829;SDS011;914;48.118;11.600;2023-05-24T08:57:06;9.57;;;7.90;;
1829;SDS011;914;48.118;11.600;2023-05-24T08:59:32;6.70;;;6.00;;
1829;SDS011;914;48.118;11.600;2023-05-24T09:01:58;6.80;;;5.70;;
1829;SDS011;914;48.118;11.600;2023-05-24T09:04:25;6.53;;;5.93;;
1829;SDS011;914;48.118;11.600;2023-05-24T09:06:52;10.07;;;6.10;;
1829;SDS011;914;48.118;11.600;2023-05-24T09:09:20;6.53;;;5.70;;
1829;SDS011;914;48.118;11.600;2023-05-24T09:11:46;6.30;;;5.73;;
1829;SDS011;914;48.118;11.600;2023-05-24T09:14:15;7.63;;;6.20;;
1829;SDS011;914;48.118;11.600;2023-05-24T09:16:42;6.73;;;5.77;;
1829;SDS011;914;48.118;11.600;2023-05-24T09:19:08;5.83;;;5.27;;
1829;SDS011;914;48.118;11.600;2023-05-24T09:21:34;7.43;;;6.10;;
1829;SDS011;914;48.118;11.600;2023-05-24T09:24:01;6.90;;;6.20;;
1829;SDS011;914;48.118;11.600;2023-05-24T09:26:28;7.03;;;5.60;;
1829;SDS011;914;48.118;11.600;2023-05-24T09:28:54;7.20;;;6.37;;
1829;SDS011;914;48.118;11.600;2023-05-24T09:31:31;5.60;;;5.10;;
1829;SDS011;914;48.118;11.600;2023-05-24T09:33:58;6.43;;;4.90;;
1829;SDS011;914;48.118;11.600;2023-05-24T09:36:25;6.03;;;5.40;;
1829;SDS011;914;48.118;11.600;2023-05-24T09:39:06;5.93;;;5.33;;
1829;SDS011;914;48.118;11.600;2023-05-24T09:41:34;8.27;;;5.40;;
1829;SDS011;914;48.118;11.600;2023-05-24T09:44:00;9.27;;;5.50;;
1829;SDS011;914;48.118;11.600;2023-05-24T09:46:27;8.50;;;6.00;;
1829;SDS011;914;48.118;11.600;2023-05-24T09:48:59;7.30;;;6.03;;
1829;SDS011;914;48.118;11.600;2023-05-24T09:51:28;8.13;;;5.83;;
1829;SDS011;914;48.118;11.600;2023-05-24T09:53:59;6.93;;;6.30;;
1829;SDS011;914;48.118;11.600;2023-05-24T09:56:26;7.90;;;6.73;;
1829;SDS011;914;48.118;11.600;2023-05-24T09:58:52;6.40;;;5.73;;
1829;SDS011;914;48.118;11.600;2023-05-24T10:01:21;7.57;;;5.97;;
1829;SDS011;914;48.118;11.600;2023-05-24T10:03:55;8.27;;;6.13;;
1829;SDS011;914;48.118;11.600;2023-05-24T10:06:23;8.47;;;6.60;;
1829;SDS011;914;48.118;11.600;2023-05-24T10:08:49;9.50;;;6.53;;
1829;SDS011;914;48.118;11.600;2023-05-24T10:11:16;6.97;;;6.27;;
1829;SDS011;914;48.118;11.600;2023-05-24T10:13:46;7.43;;;6.63;;
1829;SDS011;914;48.118;11.600;2023-05-24T10:16:12;8.83;;;6.93;;
1829;SDS011;914;48.118;11.600;2023-05-24T10:18:38;8.70;;;6.77;;
1829;SDS011;914;48.118;11.600;2023-05-24T10:21:04;10.23;;;7.40;;
1829;SDS011;914;48.118;11.600;2023-05-24T10:23:35;9.33;;;7.30;;
1829;SDS011;914;48.118;11.600;2023-05-24T10:26:03;11.37;;;7.23;;
1829;SDS011;914;48.118;11.600;2023-05-24T10:28:30;10.53;;;7.73;;
1829;SDS011;914;48.118;11.600;2023-05-24T10:33:34;9.40;;;7.57;;
1829;SDS011;914;48.118;11.600;2023-05-24T10:36:04;8.60;;;7.80;;
1829;SDS011;914;48.118;11.600;2023-05-24T10:38:32;13.03;;;7.90;;
1829;SDS011;914;48.118;11.600;2023-05-24T10:40:58;11.40;;;8.13;;
1829;SDS011;914;48.118;11.600;2023-05-24T10:43:24;8.67;;;7.23;;
1829;SDS011;914;48.118;11.600;2023-05-24T10:45:50;9.00;;;6.60;;
1829;SDS011;914;48.118;11.600;2023-05-24T10:50:48;9.80;;;7.10;;
1829;SDS011;914;48.118;11.600;2023-05-24T10:53:15;7.80;;;6.60;;
1829;SDS011;914;48.118;11.600;2023-05-24T10:58:44;8.30;;;6.80;;
1829;SDS011;914;48.118;11.600;2023-05-24T11:01:27;13.00;;;6.53;;
1829;SDS011;914;48.118;11.600;2023-05-24T11:04:07;9.33;;;6.70;;
1829;SDS011;914;48.118;11.600;2023-05-24T11:09:30;7.37;;;6.00;;
1829;SDS011;914;48.118;11.600;2023-05-24T11:12:01;12.63;;;6.50;;
1829;SDS011;914;48.118;11.600;2023-05-24T11:14:54;9.33;;;6.63;;
1829;SDS011;914;48.118;11.600;2023-05-24T11:17:22;9.03;;;6.43;;
1829;SDS011;914;48.118;11.600;2023-05-24T11:19:54;8.50;;;6.43;;
1829;SDS011;914;48.118;11.600;2023-05-24T11:22:21;10.63;;;6.67;;
1829;SDS011;914;48.118;11.600;2023-05-24T11:24:48;10.13;;;7.03;;
1829;SDS011;914;48.118;11.600;2023-05-24T11:27:15;12.63;;;6.90;;
1829;SDS011;914;48.118;11.600;2023-05-24T11:29:42;8.57;;;6.50;;
1829;SDS011;914;48.118;11.600;2023-05-24T11:32:12;9.30;;;6.70;;
1829;SDS011;914;48.118;11.600;2023-05-24T11:34:43;9.37;;;6.07;;
1829;SDS011;914;48.118;11.600;2023-05-24T11:37:10;10.90;;;6.57;;
1829;SDS011;914;48.118;11.600;2023-05-24T11:39:36;10.60;;;7.10;;
1829;SDS011;914;48.118;11.600;2023-05-24T11:42:03;7.57;;;6.80;;
1829;SDS011;914;48.118;11.600;2023-05-24T11:44:30;10.37;;;6.47;;
1829;SDS011;914;48.118;11.600;2023-05-24T11:46:57;7.23;;;6.53;;
1829;SDS011;914;48.118;11.600;2023-05-24T11:49:24;9.70;;;6.67;;
1829;SDS011;914;48.118;11.600;2023-05-24T11:51:51;7.20;;;6.23;;
1829;SDS011;914;48.118;11.600;2023-05-24T11:54:21;13.20;;;6.77;;
1829;SDS011;914;48.118;11.600;2023-05-24T11:56:48;8.53;;;5.70;;
1829;SDS011;914;48.118;11.600;2023-05-24T11:59:23;8.23;;;6.03;;
1829;SDS011;914;48.118;11.600;2023-05-24T12:01:59;7.60;;;6.00;;
1829;SDS011;914;48.118;11.600;2023-05-24T12:04:27;8.60;;;6.20;;
1829;SDS011;914;48.118;11.600;2023-05-24T12:06:53;10.03;;;5.83;;
1829;SDS011;914;48.118;11.600;2023-05-24T12:09:19;6.43;;;5.53;;
1829;SDS011;914;48.118;11.600;2023-05-24T12:11:46;9.60;;;5.60;;
1829;SDS011;914;48.118;11.600;2023-05-24T12:14:18;9.47;;;5.67;;
1829;SDS011;914;48.118;11.600;2023-05-24T12:16:44;8.00;;;5.60;;
1829;SDS011;914;48.118;11.600;2023-05-24T12:19:17;10.27;;;5.37;;
1829;SDS011;914;48.118;11.600;2023-05-24T12:21:43;9.43;;;5.70;;
1829;SDS011;914;48.118;11.600;2023-05-24T12:24:10;10.77;;;6.33;;
1829;SDS011;914;48.118;11.600;2023-05-24T12:26:45;9.70;;;6.40;;
1829;SDS011;914;48.118;11.600;2023-05-24T12:29:12;10.10;;;5.80;;
1829;SDS011;914;48.118;11.600;2023-05-24T12:31:39;9.90;;;6.30;;
1829;SDS011;914;48.118;11.600;2023-05-24T12:34:06;8.00;;;5.20;;
1829;SDS011;914;48.118;11.600;2023-05-24T12:36:35;9.93;;;5.20;;
1829;SDS011;914;48.118;11.600;2023-05-24T12:39:18;9.63;;;5.60;;
1829;SDS011;914;48.118;11.600;2023-05-24T12:41:48;8.63;;;5.03;;
1829;SDS011;914;48.118;11.600;2023-05-24T12:44:24;10.07;;;5.03;;
1829;SDS011;914;48.118;11.600;2023-05-24T12:46:55;7.90;;;4.80;;
1829;SDS011;914;48.118;11.600;2023-05-24T12:49:22;6.40;;;4.73;;
1829;SDS011;914;48.118;11.600;2023-05-24T12:51:49;9.53;;;5.17;;
1829;SDS011;914;48.118;11.600;2023-05-24T12:54:18;10.67;;;5.13;;
1829;SDS011;914;48.118;11.600;2023-05-24T12:56:47;10.83;;;4.80;;
1829;SDS011;914;48.118;11.600;2023-05-24T12:59:26;7.83;;;5.00;;
1829;SDS011;914;48.118;11.600;2023-05-24T13:01:58;7.50;;;4.53;;
1829;SDS011;914;48.118;11.600;2023-05-24T13:04:23;8.93;;;4.90;;
1829;SDS011;914;48.118;11.600;2023-05-24T13:06:51;10.07;;;5.20;;
1829;SDS011;914;48.118;11.600;2023-05-24T13:09:16;8.93;;;4.63;;
1829;SDS011;914;48.118;11.600;2023-05-24T13:11:45;7.03;;;4.90;;
1829;SDS011;914;48.118;11.600;2023-05-24T13:14:11;12.43;;;4.90;;
1829;SDS011;914;48.118;11.600;2023-05-24T13:16:36;7.20;;;4.90;;
1829;SDS011;914;48.118;11.600;2023-05-24T13:19:02;8.90;;;5.57;;
1829;SDS011;914;48.118;11.600;2023-05-24T13:21:27;8.67;;;5.77;;
1829;SDS011;914;48.118;11.600;2023-05-24T13:23:53;13.27;;;5.93;;
1829;SDS011;914;48.118;11.600;2023-05-24T13:26:19;7.50;;;5.00;;
1829;SDS011;914;48.118;11.600;2023-05-24T13:28:46;9.77;;;5.07;;
1829;SDS011;914;48.118;11.600;2023-05-24T13:31:11;9.97;;;4.87;;
1829;SDS011;914;48.118;11.600;2023-05-24T13:33:38;8.73;;;4.83;;
1829;SDS011;914;48.118;11.600;2023-05-24T13:36:04;9.20;;;5.10;;
1829;SDS011;914;48.118;11.600;2023-05-24T13:38:31;8.27;;;4.97;;
1829;SDS011;914;48.118;11.600;2023-05-24T13:40:56;11.90;;;6.00;;
1829;SDS011;914;48.118;11.600;2023-05-24T13:43:22;10.37;;;5.23;;
1829;SDS011;914;48.118;11.600;2023-05-24T13:45:48;14.23;;;5.30;;
1829;SDS011;914;48.118;11.600;2023-05-24T13:48:14;9.03;;;5.27;;
1829;SDS011;914;48.118;11.600;2023-05-24T13:50:40;8.87;;;4.97;;
1829;SDS011;914;48.118;11.600;2023-05-24T13:53:06;10.53;;;4.73;;
1829;SDS011;914;48.118;11.600;2023-05-24T13:55:33;8.90;;;5.13;;
1829;SDS011;914;48.118;11.600;2023-05-24T13:58:00;9.67;;;5.17;;
1829;SDS011;914;48.118;11.600;2023-05-24T14:00:26;10.37;;;5.73;;
1829;SDS011;914;48.118;11.600;2023-05-24T14:02:52;9.73;;;5.63;;
1829;SDS011;914;48.118;11.600;2023-05-24T14:05:18;9.70;;;5.47;;
1829;SDS011;914;48.118;11.600;2023-05-24T14:07:45;9.17;;;6.33;;
1829;SDS011;914;48.118;11.600;2023-05-24T14:10:11;11.20;;;5.00;;
1829;SDS011;914;48.118;11.600;2023-05-24T14:12:36;9.87;;;5.43;;
1829;SDS011;914;48.118;11.600;2023-05-24T14:15:02;9.03;;;5.03;;
1829;SDS011;914;48.118;11.600;2023-05-24T14:17:29;8.90;;;4.90;;
1829;SDS011;914;48.118;11.600;2023-05-24T14:19:55;11.03;;;5.50;;
1829;SDS011;914;48.118;11.600;2023-05-24T14:22:20;11.13;;;5.63;;
1829;SDS011;914;48.118;11.600;2023-05-24T14:24:48;9.03;;;4.77;;
1829;SDS011;914;48.118;11.600;2023-05-24T14:27:14;9.90;;;5.37;;
1829;SDS011;914;48.118;11.600;2023-05-24T14:29:40;6.60;;;4.40;;
1829;SDS011;914;48.118;11.600;2023-05-24T14:32:05;9.70;;;5.03;;
1829;SDS011;914;48.118;11.600;2023-05-24T14:34:31;8.20;;;4.83;;
1829;SDS011;914;48.118;11.600;2023-05-24T14:36:57;8.23;;;3.93;;
1829;SDS011;914;48.118;11.600;2023-05-24T14:39:22;8.53;;;4.50;;
1829;SDS011;914;48.118;11.600;2023-05-24T14:41:48;9.83;;;4.80;;
1829;SDS011;914;48.118;11.600;2023-05-24T14:44:13;6.87;;;4.57;;
1829;SDS011;914;48.118;11.600;2023-05-24T14:46:39;8.00;;;4.20;;
1829;SDS011;914;48.118;11.600;2023-05-24T14:49:05;7.53;;;4.33;;
1829;SDS011;914;48.118;11.600;2023-05-24T14:51:32;7.80;;;4.60;;
1829;SDS011;914;48.118;11.600;2023-05-24T14:53:58;8.07;;;5.30;;
1829;SDS011;914;48.118;11.600;2023-05-24T14:56:23;9.17;;;4.60;;
1829;SDS011;914;48.118;11.600;2023-05-24T14:58:49;10.87;;;4.97;;
1829;SDS011;914;48.118;11.600;2023-05-24T15:01:15;9.70;;;4.35;;
1829;SDS011;914;48.118;11.600;2023-05-24T15:03:40;10.90;;;4.75;;
1829;SDS011;914;48.118;11.600;2023-05-24T15:06:06;10.90;;;4.27;;
1829;SDS011;914;48.118;11.600;2023-05-24T15:08:32;7.73;;;4.70;;
1829;SDS011;914;48.118;11.600;2023-05-24T15:10:59;8.87;;;5.20;;
1829;SDS011;914;48.118;11.600;2023-05-24T15:13:24;8.60;;;4.63;;
1829;SDS011;914;48.118;11.600;2023-05-24T15:15:50;10.77;;;5.20;;
1829;SDS011;914;48.118;11.600;2023-05-24T15:18:19;10.13;;;4.60;;
1829;SDS011;914;48.118;11.600;2023-05-24T15:20:49;9.23;;;4.73;;
1829;SDS011;914;48.118;11.600;2023-05-24T15:23:15;16.07;;;5.03;;
1829;SDS011;914;48.118;11.600;2023-05-24T15:25:44;11.77;;;4.80;;
1829;SDS011;914;48.118;11.600;2023-05-24T15:28:11;7.27;;;4.93;;
1829;SDS011;914;48.118;11.600;2023-05-24T15:30:38;7.10;;;4.40;;
1829;SDS011;914;48.118;11.600;2023-05-24T15:33:08;10.27;;;4.40;;
1829;SDS011;914;48.118;11.600;2023-05-24T15:35:35;9.03;;;4.77;;
1829;SDS011;914;48.118;11.600;2023-05-24T15:38:01;7.73;;;4.37;;